This is the latest recevied weather packets stored in our database for station/object WD9EKA. If no packets are shown the sender has not sent any weather packets the latest 1 day(s).
| Time | Temp. | Humidity | Pressure | Rain* | Wind** | Luminosity | Snow |
|---|---|---|---|---|---|---|---|
| 1778073513 | 8.89° C | 99% | 1009.3 hPa | 0 mm | - | - | - |
| 1778072434 | 8.33° C | 99% | 1008.8 hPa | 0 mm | - | - | - |
| 1778070993 | 7.78° C | 99% | 1008.5 hPa | 0 mm | - | - | - |
| 1778069553 | 7.22° C | 99% | 1008.6 hPa | 0 mm | - | - | - |
| 1778063853 | 6.11° C | 99% | 1007.2 hPa | 0 mm | - | - | - |
| 1778062773 | 6.67° C | 99% | 1007.3 hPa | 0 mm | - | - | - |
| 1778060613 | 6.67° C | 99% | 1006.4 hPa | 0 mm | - | - | - |
| 1778060253 | 7.22° C | 99% | 1006.8 hPa | 0 mm | - | - | - |
| 1778059893 | 7.22° C | 99% | 1006.7 hPa | 0 mm | - | - | - |
| 1778058212 | 7.22° C | 99% | 1006.7 hPa | 0 mm | - | - | - |
| 1778057892 | 7.22° C | 99% | 1007 hPa | 0 mm | - | - | - |
| 1778056893 | 7.22° C | 99% | 1006.6 hPa | 0 mm | - | - | - |
| 1778055873 | 7.22° C | 99% | 1006.3 hPa | 0 mm | - | - | - |
| 1778054133 | 7.22° C | 99% | 1006 hPa | 0 mm | - | - | - |
| 1778053773 | 7.22° C | 99% | 1006.4 hPa | 0 mm | - | - | - |
| 1778053053 | 6.67° C | 99% | 1005.7 hPa | 0 mm | - | - | - |
| 1778052033 | 7.22° C | 99% | 1006.1 hPa | 0 mm | - | - | - |
| 1778051673 | 7.22° C | 99% | 1006.2 hPa | 0 mm | - | - | - |
| 1778051313 | 7.22° C | 99% | 1006.5 hPa | 0 mm | - | - | - |
| 1778050593 | 7.22° C | 99% | 1005.9 hPa | 0 mm | - | - | - |
| 1778049873 | 6.67° C | 99% | 1006.1 hPa | 0 mm | - | - | - |
| 1778049513 | 6.67° C | 99% | 1006 hPa | 0 mm | - | - | - |
| 1778048793 | 6.67° C | 99% | 1006.1 hPa | 0 mm | - | - | - |
| 1778048165 | 6.67° C | 99% | 1006.1 hPa | 0 mm | - | - | - |
| 1778047534 | 6.67° C | 99% | 1006 hPa | 0 mm | - | - | - |
* Rain latest hour (hover to see other rain measurements)
** Current wind speed in m/s (hover to see current wind gust speed)